createdAt,value
2019-04-16T00:02:04.092Z,7.24
2019-04-16T00:04:56.589Z,7.19
2019-04-16T00:07:47.108Z,7.06
2019-04-16T00:10:26.413Z,6.99
2019-04-16T00:13:07.989Z,7.04
2019-04-16T00:15:41.024Z,7.03
2019-04-16T00:18:10.555Z,6.97
2019-04-16T00:20:58.492Z,6.99
2019-04-16T00:23:46.595Z,6.95
2019-04-16T00:26:15.536Z,6.88
2019-04-16T00:28:46.205Z,6.90
2019-04-16T00:31:16.581Z,6.98
2019-04-16T00:33:46.990Z,6.98
2019-04-16T00:36:18.747Z,6.97
2019-04-16T00:38:53.861Z,6.91
2019-04-16T00:41:21.179Z,6.80
2019-04-16T00:43:51.698Z,6.79
2019-04-16T00:46:22.513Z,6.68
2019-04-16T00:48:52.962Z,6.71
2019-04-16T00:51:23.443Z,6.61
2019-04-16T00:53:53.885Z,6.64
2019-04-16T00:56:24.673Z,6.69
2019-04-16T00:58:55.107Z,6.75
2019-04-16T01:01:25.487Z,6.64
2019-04-16T01:03:55.858Z,6.70
2019-04-16T01:06:26.811Z,6.77
2019-04-16T01:08:57.154Z,6.70
2019-04-16T01:11:27.869Z,6.53
2019-04-16T01:13:58.318Z,6.66
2019-04-16T01:16:30.274Z,6.51
2019-04-16T01:19:01.193Z,6.57
2019-04-16T01:21:31.626Z,6.65
2019-04-16T01:24:02.058Z,6.60
2019-04-16T01:26:32.618Z,6.53
2019-04-16T01:29:21.584Z,6.58
2019-04-16T01:32:11.909Z,6.50
2019-04-16T01:35:07.052Z,6.51
2019-04-16T01:37:56.846Z,6.36
2019-04-16T01:40:34.072Z,6.29
2019-04-16T01:43:04.498Z,6.18
2019-04-16T01:45:35.148Z,6.12
2019-04-16T01:48:07.829Z,6.05
2019-04-16T01:50:38.335Z,5.97
2019-04-16T01:53:09.460Z,5.78
2019-04-16T01:55:42.324Z,5.80
2019-04-16T01:58:12.376Z,5.74
2019-04-16T02:00:43.047Z,5.79
2019-04-16T02:03:17.571Z,5.70
2019-04-16T02:05:45.632Z,5.65
2019-04-16T02:08:16.094Z,5.47
2019-04-16T02:10:46.392Z,5.40
2019-04-16T02:13:17.499Z,5.42
2019-04-16T02:15:50.636Z,5.51
2019-04-16T02:18:20.671Z,5.52
2019-04-16T02:20:51.102Z,5.54
2019-04-16T02:23:21.871Z,5.53
2019-04-16T02:25:52.279Z,5.47
2019-04-16T02:28:27.891Z,5.37
2019-04-16T02:30:55.072Z,5.35
2019-04-16T02:33:25.844Z,5.40
2019-04-16T02:35:56.801Z,5.24
2019-04-16T02:38:27.624Z,5.23
2019-04-16T02:40:58.032Z,5.12
2019-04-16T02:43:28.880Z,5.09
2019-04-16T02:45:59.575Z,5.04
2019-04-16T02:48:30.295Z,5.02
2019-04-16T02:51:08.621Z,5.02
2019-04-16T02:53:47.452Z,5.02
2019-04-16T02:56:39.933Z,5.04
2019-04-16T02:59:16.471Z,5.04
2019-04-16T03:02:14.660Z,4.95
2019-04-16T03:04:49.153Z,4.88
2019-04-16T03:07:19.794Z,4.78
2019-04-16T03:10:00.715Z,4.83
2019-04-16T03:12:22.822Z,4.81
2019-04-16T03:14:53.091Z,4.69
2019-04-16T03:17:42.838Z,4.69
2019-04-16T03:20:12.992Z,4.63
2019-04-16T03:22:43.556Z,4.54
2019-04-16T03:25:14.864Z,4.46
2019-04-16T03:27:45.435Z,4.31
2019-04-16T03:30:16.195Z,4.21
2019-04-16T03:32:52.585Z,4.28
2019-04-16T03:35:26.603Z,4.29
2019-04-16T03:37:55.706Z,4.21
2019-04-16T03:40:26.731Z,4.22
2019-04-16T03:42:59.290Z,4.16
2019-04-16T03:45:30.114Z,4.15
2019-04-16T03:48:00.463Z,4.21
2019-04-16T03:50:32.075Z,4.16
2019-04-16T03:53:02.580Z,4.06
2019-04-16T03:55:33.008Z,3.95
2019-04-16T03:58:06.106Z,4.01
2019-04-16T04:00:36.207Z,4.06
2019-04-16T04:03:06.559Z,4.06
2019-04-16T04:05:36.857Z,4.09
2019-04-16T04:08:07.402Z,4.01
2019-04-16T04:10:37.981Z,3.96
2019-04-16T04:13:08.573Z,3.89
2019-04-16T04:15:39.380Z,3.83
2019-04-16T04:18:11.797Z,3.70
2019-04-16T04:20:41.859Z,3.61
2019-04-16T04:23:12.676Z,3.59
2019-04-16T04:25:43.196Z,3.60
2019-04-16T04:28:18.472Z,3.55
2019-04-16T04:30:48.812Z,3.58
2019-04-16T04:33:40.375Z,3.60
2019-04-16T04:36:10.369Z,3.20
2019-04-16T04:38:41.246Z,3.56
2019-04-16T04:41:11.993Z,3.64
2019-04-16T04:43:43.090Z,3.60
2019-04-16T04:46:15.329Z,3.61
2019-04-16T04:48:46.564Z,3.67
2019-04-16T04:51:17.064Z,3.85
2019-04-16T04:53:50.242Z,3.90
2019-04-16T04:56:20.507Z,3.99
2019-04-16T04:58:51.288Z,4.03
2019-04-16T05:01:21.676Z,3.98
2019-04-16T05:04:26.332Z,4.01
2019-04-16T05:06:58.912Z,3.86
2019-04-16T05:09:32.671Z,4.15
2019-04-16T05:12:02.404Z,4.29
2019-04-16T05:14:32.797Z,4.43
2019-04-16T05:17:06.503Z,4.50
2019-04-16T05:19:58.007Z,4.64
2019-04-16T05:22:28.746Z,4.93
2019-04-16T05:25:01.421Z,5.13
2019-04-16T05:27:34.246Z,5.38
2019-04-16T05:30:05.387Z,5.64
2019-04-16T05:32:35.818Z,5.75
2019-04-16T05:35:10.317Z,5.96
2019-04-16T05:37:38.698Z,6.06
2019-04-16T05:40:10.778Z,6.40
2019-04-16T05:42:41.044Z,6.63
2019-04-16T05:45:12.336Z,6.88
2019-04-16T05:47:42.761Z,7.07
2019-04-16T05:50:13.189Z,7.31
2019-04-16T05:52:43.547Z,7.51
2019-04-16T05:55:32.850Z,7.75
2019-04-16T05:58:03.253Z,7.89
2019-04-16T06:00:52.714Z,8.35
2019-04-16T06:03:23.138Z,8.48
2019-04-16T06:05:53.447Z,8.53
2019-04-16T06:08:24.002Z,8.69
2019-04-16T06:10:57.499Z,8.72
2019-04-16T06:13:45.232Z,8.91
2019-04-16T06:16:47.121Z,8.91
2019-04-16T06:19:45.941Z,9.13
2019-04-16T06:22:31.298Z,9.17
2019-04-16T06:25:20.603Z,9.77
2019-04-16T06:28:08.491Z,9.80
2019-04-16T06:30:49.315Z,9.75
2019-04-16T06:33:44.856Z,9.94
2019-04-16T06:36:49.739Z,9.75
2019-04-16T06:39:33.486Z,9.95
2019-04-16T06:42:23.259Z,9.86
2019-04-16T06:44:56.061Z,10.36
2019-04-16T06:47:54.455Z,10.15
2019-04-16T06:50:44.056Z,10.54
2019-04-16T06:53:33.831Z,10.78
2019-04-16T06:56:13.375Z,10.87
2019-04-16T06:59:05.674Z,10.99
2019-04-16T07:01:53.402Z,10.99
2019-04-16T07:04:41.205Z,10.79
2019-04-16T07:07:40.292Z,10.71
2019-04-16T07:10:14.846Z,11.24
2019-04-16T07:12:45.751Z,11.14
2019-04-16T07:15:16.434Z,10.78
2019-04-16T07:17:46.754Z,10.78
2019-04-16T07:20:17.161Z,11.00
2019-04-16T07:22:52.747Z,11.39
2019-04-16T07:25:21.167Z,11.79
2019-04-16T07:28:00.034Z,11.84
2019-04-16T07:30:38.691Z,11.45
2019-04-16T07:33:14.773Z,11.58
2019-04-16T07:36:04.463Z,11.27
2019-04-16T07:38:43.274Z,11.29
2019-04-16T07:41:26.677Z,11.44
2019-04-16T07:44:15.593Z,11.80
2019-04-16T07:46:59.086Z,11.63
2019-04-16T07:49:47.379Z,11.94
2019-04-16T07:52:38.923Z,12.23
2019-04-16T07:55:31.055Z,13.03
2019-04-16T07:58:01.896Z,11.97
2019-04-16T08:00:33.625Z,12.16
2019-04-16T08:03:04.130Z,11.95
2019-04-16T08:05:37.844Z,12.19
2019-04-16T08:08:07.366Z,12.80
2019-04-16T08:10:38.067Z,12.40
2019-04-16T08:13:34.329Z,12.58
2019-04-16T08:16:05.125Z,11.99
2019-04-16T08:18:37.675Z,12.32
2019-04-16T08:21:12.079Z,13.40
2019-04-16T08:23:43.625Z,12.94
2019-04-16T08:26:14.112Z,12.78
2019-04-16T08:28:44.956Z,12.18
2019-04-16T08:31:18.531Z,12.41
2019-04-16T08:33:49.435Z,12.55
2019-04-16T08:36:19.798Z,12.89
2019-04-16T08:38:50.290Z,13.12
2019-04-16T08:41:21.668Z,12.17
2019-04-16T08:43:52.492Z,12.40
2019-04-16T08:46:23.303Z,13.83
2019-04-16T08:48:54.363Z,13.48
2019-04-16T08:51:30.663Z,13.25
2019-04-16T08:53:57.666Z,13.32
2019-04-16T08:56:28.077Z,14.12
2019-04-16T08:59:01.224Z,14.15
2019-04-16T09:01:33.866Z,13.42
2019-04-16T09:04:04.347Z,13.75
2019-04-16T09:06:34.825Z,14.71
2019-04-16T09:09:18.279Z,14.75
2019-04-16T09:11:50.741Z,14.62
2019-04-16T09:14:25.363Z,14.46
2019-04-16T09:17:15.833Z,16.07
2019-04-16T09:20:06.463Z,16.06
2019-04-16T09:22:48.222Z,15.31
2019-04-16T09:25:28.214Z,14.46
2019-04-16T09:28:25.615Z,14.98
2019-04-16T09:31:26.187Z,15.87
2019-04-16T09:34:06.785Z,16.30
2019-04-16T09:36:56.503Z,15.36
2019-04-16T09:39:39.136Z,17.14
2019-04-16T09:42:09.535Z,16.93
2019-04-16T09:44:39.920Z,15.99
2019-04-16T09:47:10.413Z,15.34
2019-04-16T09:49:41.364Z,15.77
2019-04-16T09:52:11.827Z,15.84
2019-04-16T09:54:44.463Z,15.17
2019-04-16T09:57:14.673Z,16.09
2019-04-16T09:59:49.637Z,16.00
2019-04-16T10:02:26.045Z,16.49
2019-04-16T10:04:56.481Z,17.62
2019-04-16T10:07:26.802Z,17.11
2019-04-16T10:09:57.533Z,18.14
2019-04-16T10:12:28.022Z,17.39
2019-04-16T10:14:58.635Z,18.30
2019-04-16T10:17:30.170Z,18.27
2019-04-16T10:20:02.333Z,19.15
2019-04-16T10:22:32.711Z,20.72
2019-04-16T10:25:11.626Z,19.80
2019-04-16T10:28:05.104Z,19.52
2019-04-16T10:30:39.070Z,19.58
2019-04-16T10:33:09.688Z,17.81
2019-04-16T10:35:40.072Z,20.20
2019-04-16T10:38:28.409Z,19.79
2019-04-16T10:41:04.530Z,20.06
2019-04-16T10:43:46.803Z,19.04
2019-04-16T10:46:28.762Z,18.33
2019-04-16T10:49:18.402Z,19.86
2019-04-16T10:52:03.571Z,20.68
2019-04-16T10:54:44.439Z,21.68
2019-04-16T10:57:32.402Z,21.19
2019-04-16T11:00:11.623Z,19.49
2019-04-16T11:02:48.201Z,19.62
2019-04-16T11:05:32.918Z,18.97
2019-04-16T11:08:04.272Z,17.95
2019-04-16T11:10:36.280Z,17.25
2019-04-16T11:13:08.699Z,16.70
2019-04-16T11:15:39.181Z,17.11
2019-04-16T11:18:09.660Z,16.80
2019-04-16T11:20:40.632Z,17.18
2019-04-16T11:23:11.024Z,16.91
2019-04-16T11:25:42.099Z,16.71
2019-04-16T11:28:14.330Z,17.03
2019-04-16T11:30:49.162Z,17.22
2019-04-16T11:33:19.739Z,17.52
2019-04-16T11:35:53.172Z,18.31
2019-04-16T11:38:23.060Z,18.25
2019-04-16T11:40:54.434Z,18.46
2019-04-16T11:43:27.242Z,18.43
2019-04-16T11:45:57.611Z,18.51
2019-04-16T11:48:28.319Z,18.57
2019-04-16T11:50:59.053Z,18.58
2019-04-16T11:53:29.964Z,18.37
2019-04-16T11:56:00.777Z,18.27
2019-04-16T11:58:43.491Z,17.93
2019-04-16T12:01:32.279Z,18.24
2019-04-16T12:04:10.967Z,18.00
2019-04-16T12:06:57.460Z,17.99
2019-04-16T12:09:52.657Z,18.90
2019-04-16T12:12:27.804Z,18.00
2019-04-16T12:15:29.635Z,18.49
2019-04-16T12:18:07.039Z,18.01
2019-04-16T12:20:50.134Z,18.16
2019-04-16T12:23:43.077Z,18.48
2019-04-16T12:26:31.281Z,18.63
2019-04-16T12:29:32.832Z,19.00
2019-04-16T12:32:40.620Z,18.83
2019-04-16T12:35:22.670Z,18.16
2019-04-16T12:38:13.092Z,18.64
2019-04-16T12:40:57.292Z,18.92
2019-04-16T12:43:35.996Z,18.56
2019-04-16T12:46:30.322Z,18.89
2019-04-16T12:49:17.218Z,18.66
2019-04-16T12:51:57.899Z,19.03
2019-04-16T12:54:42.460Z,18.87
2019-04-16T12:57:46.838Z,18.98
2019-04-16T13:00:39.296Z,18.93
2019-04-16T13:03:28.559Z,19.09
2019-04-16T13:06:26.155Z,18.86
2019-04-16T13:09:30.485Z,18.85
2019-04-16T13:12:18.198Z,18.69
2019-04-16T13:15:09.777Z,18.89
2019-04-16T13:18:01.895Z,18.78
2019-04-16T13:20:49.803Z,18.55
2019-04-16T13:23:34.140Z,18.77
2019-04-16T13:26:15.803Z,18.66
2019-04-16T13:28:46.107Z,18.92
2019-04-16T13:31:17.015Z,19.07
2019-04-16T13:33:50.746Z,18.69
2019-04-16T13:36:19.568Z,18.97
2019-04-16T13:38:55.436Z,18.81
2019-04-16T13:41:27.081Z,18.89
2019-04-16T13:44:02.240Z,18.75
2019-04-16T13:46:34.709Z,18.93
2019-04-16T13:49:19.409Z,19.02
2019-04-16T13:51:49.829Z,19.03
2019-04-16T13:54:44.669Z,19.31
2019-04-16T13:57:17.296Z,19.13
2019-04-16T14:00:05.714Z,19.43
2019-04-16T14:02:56.666Z,19.28
2019-04-16T14:05:28.418Z,19.23
2019-04-16T14:07:59.337Z,19.22
2019-04-16T14:10:29.972Z,19.24
2019-04-16T14:13:02.058Z,19.25
2019-04-16T14:15:38.983Z,19.04
2019-04-16T14:18:07.265Z,19.08
2019-04-16T14:20:37.634Z,19.05
2019-04-16T14:23:08.270Z,19.05
2019-04-16T14:25:39.275Z,19.11
2019-04-16T14:28:09.751Z,18.97
2019-04-16T14:30:44.631Z,19.07
2019-04-16T14:33:20.439Z,18.96
2019-04-16T14:35:50.878Z,18.95
2019-04-16T14:38:28.953Z,18.89
2019-04-16T14:40:59.419Z,18.96
2019-04-16T14:43:34.977Z,18.76
2019-04-16T14:46:08.469Z,18.74
2019-04-16T14:48:42.460Z,18.59
2019-04-16T14:51:10.231Z,18.61
2019-04-16T14:53:46.580Z,18.42
2019-04-16T14:56:21.277Z,18.37
2019-04-16T14:59:29.901Z,18.48
2019-04-16T15:02:07.898Z,18.43
2019-04-16T15:04:57.694Z,18.34
2019-04-16T15:07:34.766Z,18.60
2019-04-16T15:10:25.253Z,18.72
2019-04-16T15:13:21.028Z,18.73
2019-04-16T15:16:21.289Z,18.90
2019-04-16T15:19:08.278Z,18.92
2019-04-16T15:21:57.660Z,18.93
2019-04-16T15:24:43.222Z,19.11
2019-04-16T15:27:40.385Z,19.07
2019-04-16T15:30:29.379Z,19.25
2019-04-16T15:33:18.896Z,19.14
2019-04-16T15:36:02.026Z,19.02
2019-04-16T15:38:36.971Z,18.83
2019-04-16T15:41:29.243Z,18.93
2019-04-16T15:44:31.578Z,18.85
2019-04-16T15:47:04.516Z,18.83
2019-04-16T15:49:40.260Z,18.70
2019-04-16T15:52:47.742Z,18.84
2019-04-16T15:55:36.839Z,18.64
2019-04-16T15:58:25.101Z,18.74
2019-04-16T16:01:49.824Z,18.65
2019-04-16T16:04:32.809Z,18.54
2019-04-16T16:07:12.217Z,18.46
2019-04-16T16:10:22.991Z,18.44
2019-04-16T16:12:53.967Z,18.38
2019-04-16T16:15:24.737Z,18.25
2019-04-16T16:17:55.757Z,18.20
2019-04-16T16:20:26.028Z,18.21
2019-04-16T16:22:58.403Z,18.12
2019-04-16T16:25:28.607Z,18.02
2019-04-16T16:27:59.011Z,17.94
2019-04-16T16:30:29.423Z,17.94
2019-04-16T16:32:59.746Z,17.91
2019-04-16T16:35:30.339Z,17.95
2019-04-16T16:38:01.300Z,17.95
2019-04-16T16:40:35.877Z,17.99
2019-04-16T16:43:08.627Z,17.91
2019-04-16T16:45:48.632Z,17.92
2019-04-16T16:48:21.909Z,17.90
2019-04-16T16:50:51.996Z,17.87
2019-04-16T16:53:28.763Z,17.85
2019-04-16T16:56:06.080Z,17.85
2019-04-16T16:58:54.505Z,17.83
2019-04-16T17:01:39.629Z,17.76
2019-04-16T17:04:13.676Z,17.80
2019-04-16T17:06:44.529Z,17.84
2019-04-16T17:09:31.225Z,17.62
2019-04-16T17:12:02.691Z,17.58
2019-04-16T17:14:36.464Z,17.44
2019-04-16T17:17:13.900Z,17.46
2019-04-16T17:19:38.446Z,17.40
2019-04-16T17:22:08.915Z,17.30
2019-04-16T17:24:39.728Z,17.20
2019-04-16T17:27:10.183Z,17.20
2019-04-16T17:29:40.931Z,17.14
2019-04-16T17:32:11.413Z,17.11
2019-04-16T17:34:42.257Z,17.04
2019-04-16T17:37:12.609Z,16.98
2019-04-16T17:39:57.172Z,16.88
2019-04-16T17:42:45.781Z,16.82
2019-04-16T17:45:53.696Z,16.69
2019-04-16T17:48:49.174Z,16.69
2019-04-16T17:51:25.322Z,16.63
2019-04-16T17:54:12.353Z,16.56
2019-04-16T17:57:10.419Z,16.52
2019-04-16T18:00:00.481Z,16.45
2019-04-16T18:02:43.931Z,16.28
2019-04-16T18:05:31.589Z,16.21
2019-04-16T18:08:39.420Z,16.16
2019-04-16T18:11:16.392Z,16.08
2019-04-16T18:14:10.794Z,16.07
2019-04-16T18:16:46.720Z,15.99
2019-04-16T18:19:38.656Z,15.93
2019-04-16T18:22:27.966Z,15.92
2019-04-16T18:25:22.138Z,15.89
2019-04-16T18:28:05.356Z,15.84
2019-04-16T18:30:44.532Z,15.81
2019-04-16T18:33:39.654Z,15.85
2019-04-16T18:36:37.881Z,15.88
2019-04-16T18:39:26.300Z,15.81
2019-04-16T18:42:00.914Z,15.76
2019-04-16T18:44:51.309Z,15.71
2019-04-16T18:47:34.141Z,15.61
2019-04-16T18:50:07.343Z,15.44
2019-04-16T18:52:38.050Z,15.16
2019-04-16T18:55:08.664Z,15.01
2019-04-16T18:57:39.259Z,15.00
2019-04-16T19:00:28.767Z,14.93
2019-04-16T19:02:59.613Z,14.90
2019-04-16T19:05:30.059Z,14.93
2019-04-16T19:08:01.297Z,14.92
2019-04-16T19:10:31.917Z,14.88
2019-04-16T19:13:02.339Z,14.88
2019-04-16T19:15:32.885Z,14.84
2019-04-16T19:18:18.601Z,14.89
2019-04-16T19:20:35.923Z,14.91
2019-04-16T19:23:06.996Z,14.92
2019-04-16T19:25:37.477Z,14.91
2019-04-16T19:28:07.886Z,14.84
2019-04-16T19:30:38.432Z,14.84
2019-04-16T19:33:08.897Z,14.79
2019-04-16T19:35:39.600Z,14.74
2019-04-16T19:38:10.064Z,14.70
2019-04-16T19:40:40.458Z,14.65
2019-04-16T19:43:11.272Z,14.66
2019-04-16T19:45:43.745Z,14.59
2019-04-16T19:48:17.594Z,14.65
2019-04-16T19:50:45.826Z,14.57
2019-04-16T19:53:16.250Z,14.58
2019-04-16T19:55:46.687Z,14.55
2019-04-16T19:58:17.109Z,14.52
2019-04-16T20:00:47.824Z,14.45
2019-04-16T20:03:21.054Z,14.49
2019-04-16T20:05:51.324Z,14.44
2019-04-16T20:08:22.385Z,14.42
2019-04-16T20:10:53.641Z,14.35
2019-04-16T20:13:24.015Z,14.38
2019-04-16T20:15:55.127Z,14.28
2019-04-16T20:18:31.564Z,14.33
2019-04-16T20:21:02.335Z,14.34
2019-04-16T20:23:33.073Z,14.31
2019-04-16T20:26:05.587Z,14.27
2019-04-16T20:28:36.844Z,14.27
2019-04-16T20:31:07.303Z,14.26
2019-04-16T20:33:37.688Z,14.26
2019-04-16T20:36:08.128Z,14.25
2019-04-16T20:38:38.549Z,14.28
2019-04-16T20:41:09.002Z,14.25
2019-04-16T20:43:39.405Z,14.25
2019-04-16T20:46:09.732Z,14.19
2019-04-16T20:48:41.911Z,14.21
2019-04-16T20:51:13.064Z,14.22
2019-04-16T20:53:46.272Z,14.15
2019-04-16T20:56:20.022Z,14.04
2019-04-16T20:58:49.006Z,14.06
2019-04-16T21:01:32.810Z,14.09
2019-04-16T21:04:05.074Z,14.01
2019-04-16T21:06:31.078Z,13.94
2019-04-16T21:09:02.531Z,13.98
2019-04-16T21:11:33.495Z,13.85
2019-04-16T21:14:04.810Z,13.84
2019-04-16T21:16:35.231Z,13.82
2019-04-16T21:19:21.627Z,13.68
2019-04-16T21:21:38.392Z,13.63
2019-04-16T21:24:09.238Z,13.59
2019-04-16T21:26:40.773Z,13.46
2019-04-16T21:29:21.360Z,13.54
2019-04-16T21:31:54.811Z,13.49
2019-04-16T21:34:34.725Z,13.42
2019-04-16T21:37:22.612Z,13.24
2019-04-16T21:39:58.076Z,13.30
2019-04-16T21:42:28.512Z,13.35
2019-04-16T21:44:59.172Z,13.23
2019-04-16T21:47:29.520Z,13.20
2019-04-16T21:50:00.073Z,13.24
2019-04-16T21:52:32.795Z,13.21
2019-04-16T21:55:05.056Z,13.17
2019-04-16T21:57:35.533Z,13.11
2019-04-16T22:00:08.858Z,13.09
2019-04-16T22:02:39.938Z,13.05
2019-04-16T22:05:11.270Z,12.99
2019-04-16T22:07:42.051Z,13.01
2019-04-16T22:10:12.512Z,12.99
2019-04-16T22:12:44.724Z,13.02
2019-04-16T22:15:14.992Z,12.97
2019-04-16T22:17:45.323Z,13.03
2019-04-16T22:20:15.670Z,13.07
2019-04-16T22:22:47.368Z,13.00
2019-04-16T22:25:17.856Z,13.01
2019-04-16T22:27:48.216Z,12.99
2019-04-16T22:30:20.095Z,13.00
2019-04-16T22:32:51.280Z,13.00
2019-04-16T22:35:22.327Z,13.06
2019-04-16T22:37:53.159Z,13.15
2019-04-16T22:40:46.422Z,12.98
2019-04-16T22:43:39.592Z,13.04
2019-04-16T22:46:28.730Z,13.01
2019-04-16T22:49:00.366Z,13.02
2019-04-16T22:51:31.004Z,13.01
2019-04-16T22:54:01.871Z,13.00
2019-04-16T22:56:54.354Z,12.87
2019-04-16T22:59:24.985Z,12.91
2019-04-16T23:01:55.296Z,12.95
2019-04-16T23:04:27.005Z,12.92
2019-04-16T23:06:58.068Z,12.86
2019-04-16T23:09:30.438Z,12.82
2019-04-16T23:12:01.214Z,12.78
2019-04-16T23:14:34.442Z,12.75
2019-04-16T23:17:03.979Z,12.74
2019-04-16T23:19:34.386Z,12.69
2019-04-16T23:22:04.933Z,12.64
2019-04-16T23:24:35.771Z,12.63
2019-04-16T23:27:06.717Z,12.58
2019-04-16T23:29:37.788Z,12.60
2019-04-16T23:32:08.596Z,12.51
2019-04-16T23:34:39.148Z,12.54
2019-04-16T23:37:09.677Z,12.48
2019-04-16T23:39:40.281Z,12.47
2019-04-16T23:42:11.290Z,12.47
2019-04-16T23:45:00.516Z,12.48
2019-04-16T23:47:57.387Z,12.44
2019-04-16T23:50:45.234Z,12.41
2019-04-16T23:53:15.270Z,12.37
2019-04-16T23:56:04.477Z,12.29
2019-04-16T23:59:01.461Z,12.25
